sensor_id;sensor_type;location;lat;lon;timestamp;P1;durP1;ratioP1;P2;durP2;ratioP2
76196;SDS011;64974;53.144;17.962;2024-01-30T00:01:35;118.40;;;39.63;;
76196;SDS011;64974;53.144;17.962;2024-01-30T00:04:02;121.82;;;38.97;;
76196;SDS011;64974;53.144;17.962;2024-01-30T00:06:28;106.20;;;32.92;;
76196;SDS011;64974;53.144;17.962;2024-01-30T00:08:55;87.53;;;28.58;;
76196;SDS011;64974;53.144;17.962;2024-01-30T00:11:22;100.68;;;31.60;;
76196;SDS011;64974;53.144;17.962;2024-01-30T00:13:53;104.38;;;34.08;;
76196;SDS011;64974;53.144;17.962;2024-01-30T00:16:28;94.15;;;30.83;;
76196;SDS011;64974;53.144;17.962;2024-01-30T00:18:55;94.45;;;31.05;;
76196;SDS011;64974;53.144;17.962;2024-01-30T00:21:22;91.57;;;30.40;;
76196;SDS011;64974;53.144;17.962;2024-01-30T00:23:48;84.85;;;29.55;;
76196;SDS011;64974;53.144;17.962;2024-01-30T00:28:47;74.32;;;24.92;;
76196;SDS011;64974;53.144;17.962;2024-01-30T00:31:15;81.30;;;28.45;;
76196;SDS011;64974;53.144;17.962;2024-01-30T00:33:42;97.95;;;29.50;;
76196;SDS011;64974;53.144;17.962;2024-01-30T00:36:09;87.78;;;29.92;;
76196;SDS011;64974;53.144;17.962;2024-01-30T00:38:36;84.13;;;29.05;;
76196;SDS011;64974;53.144;17.962;2024-01-30T00:41:03;74.65;;;26.95;;
76196;SDS011;64974;53.144;17.962;2024-01-30T00:43:30;80.15;;;27.13;;
76196;SDS011;64974;53.144;17.962;2024-01-30T00:45:57;81.38;;;28.00;;
76196;SDS011;64974;53.144;17.962;2024-01-30T00:48:24;75.10;;;27.52;;
76196;SDS011;64974;53.144;17.962;2024-01-30T00:50:52;94.22;;;30.73;;
76196;SDS011;64974;53.144;17.962;2024-01-30T00:53:18;70.70;;;27.77;;
76196;SDS011;64974;53.144;17.962;2024-01-30T00:55:45;85.10;;;30.23;;
76196;SDS011;64974;53.144;17.962;2024-01-30T00:58:12;77.85;;;26.38;;
76196;SDS011;64974;53.144;17.962;2024-01-30T01:00:38;70.88;;;26.95;;
76196;SDS011;64974;53.144;17.962;2024-01-30T01:05:31;72.72;;;25.67;;
76196;SDS011;64974;53.144;17.962;2024-01-30T01:07:59;84.53;;;26.67;;
76196;SDS011;64974;53.144;17.962;2024-01-30T01:10:26;76.90;;;26.23;;
76196;SDS011;64974;53.144;17.962;2024-01-30T01:12:54;72.20;;;26.60;;
76196;SDS011;64974;53.144;17.962;2024-01-30T01:17:46;71.53;;;24.30;;
76196;SDS011;64974;53.144;17.962;2024-01-30T01:20:14;73.95;;;26.63;;
76196;SDS011;64974;53.144;17.962;2024-01-30T01:22:40;76.43;;;27.50;;
76196;SDS011;64974;53.144;17.962;2024-01-30T01:25:08;74.70;;;26.60;;
76196;SDS011;64974;53.144;17.962;2024-01-30T01:27:35;75.97;;;27.70;;
76196;SDS011;64974;53.144;17.962;2024-01-30T01:30:06;66.90;;;27.02;;
76196;SDS011;64974;53.144;17.962;2024-01-30T01:32:35;60.70;;;23.67;;
76196;SDS011;64974;53.144;17.962;2024-01-30T01:35:03;61.20;;;22.40;;
76196;SDS011;64974;53.144;17.962;2024-01-30T01:37:30;57.53;;;23.10;;
76196;SDS011;64974;53.144;17.962;2024-01-30T01:39:57;67.40;;;23.95;;
76196;SDS011;64974;53.144;17.962;2024-01-30T01:42:25;66.80;;;24.67;;
76196;SDS011;64974;53.144;17.962;2024-01-30T01:44:51;79.30;;;26.73;;
76196;SDS011;64974;53.144;17.962;2024-01-30T01:49:44;60.92;;;22.35;;
76196;SDS011;64974;53.144;17.962;2024-01-30T01:52:11;48.75;;;19.75;;
76196;SDS011;64974;53.144;17.962;2024-01-30T01:54:37;45.85;;;19.85;;
76196;SDS011;64974;53.144;17.962;2024-01-30T01:57:04;52.05;;;19.80;;
76196;SDS011;64974;53.144;17.962;2024-01-30T02:01:58;46.00;;;19.10;;
76196;SDS011;64974;53.144;17.962;2024-01-30T02:04:25;52.20;;;19.73;;
76196;SDS011;64974;53.144;17.962;2024-01-30T02:06:51;55.97;;;21.60;;
76196;SDS011;64974;53.144;17.962;2024-01-30T02:09:18;53.35;;;21.20;;
76196;SDS011;64974;53.144;17.962;2024-01-30T02:11:44;54.28;;;20.60;;
76196;SDS011;64974;53.144;17.962;2024-01-30T02:14:11;56.53;;;22.65;;
76196;SDS011;64974;53.144;17.962;2024-01-30T02:16:48;66.13;;;24.35;;
76196;SDS011;64974;53.144;17.962;2024-01-30T02:19:14;65.05;;;22.70;;
76196;SDS011;64974;53.144;17.962;2024-01-30T02:21:42;72.30;;;27.48;;
76196;SDS011;64974;53.144;17.962;2024-01-30T02:24:15;87.75;;;29.88;;
76196;SDS011;64974;53.144;17.962;2024-01-30T02:26:42;65.93;;;26.25;;
76196;SDS011;64974;53.144;17.962;2024-01-30T02:29:08;64.38;;;25.23;;
76196;SDS011;64974;53.144;17.962;2024-01-30T02:31:35;60.53;;;26.27;;
76196;SDS011;64974;53.144;17.962;2024-01-30T02:34:01;65.72;;;26.30;;
76196;SDS011;64974;53.144;17.962;2024-01-30T02:36:30;72.25;;;27.05;;
76196;SDS011;64974;53.144;17.962;2024-01-30T02:38:58;63.33;;;25.30;;
76196;SDS011;64974;53.144;17.962;2024-01-30T02:41:24;60.67;;;24.63;;
76196;SDS011;64974;53.144;17.962;2024-01-30T02:43:51;66.53;;;24.98;;
76196;SDS011;64974;53.144;17.962;2024-01-30T02:46:19;65.93;;;24.73;;
76196;SDS011;64974;53.144;17.962;2024-01-30T02:48:46;58.65;;;22.92;;
76196;SDS011;64974;53.144;17.962;2024-01-30T02:51:13;64.10;;;23.73;;
76196;SDS011;64974;53.144;17.962;2024-01-30T02:53:39;53.88;;;21.30;;
76196;SDS011;64974;53.144;17.962;2024-01-30T02:56:07;49.22;;;20.15;;
76196;SDS011;64974;53.144;17.962;2024-01-30T02:58:35;51.30;;;18.63;;
76196;SDS011;64974;53.144;17.962;2024-01-30T03:01:01;45.67;;;17.20;;
76196;SDS011;64974;53.144;17.962;2024-01-30T03:03:28;41.30;;;17.35;;
76196;SDS011;64974;53.144;17.962;2024-01-30T03:05:54;45.22;;;16.67;;
76196;SDS011;64974;53.144;17.962;2024-01-30T03:08:21;45.95;;;17.40;;
76196;SDS011;64974;53.144;17.962;2024-01-30T03:10:48;46.22;;;16.33;;
76196;SDS011;64974;53.144;17.962;2024-01-30T03:13:16;41.95;;;18.38;;
76196;SDS011;64974;53.144;17.962;2024-01-30T03:15:42;43.60;;;16.25;;
76196;SDS011;64974;53.144;17.962;2024-01-30T03:18:15;45.05;;;17.65;;
76196;SDS011;64974;53.144;17.962;2024-01-30T03:20:41;39.60;;;16.42;;
76196;SDS011;64974;53.144;17.962;2024-01-30T03:25:34;41.42;;;14.25;;
76196;SDS011;64974;53.144;17.962;2024-01-30T03:28:01;36.63;;;15.02;;
76196;SDS011;64974;53.144;17.962;2024-01-30T03:30:29;36.30;;;15.85;;
76196;SDS011;64974;53.144;17.962;2024-01-30T03:32:57;37.70;;;15.10;;
76196;SDS011;64974;53.144;17.962;2024-01-30T03:35:23;43.00;;;15.93;;
76196;SDS011;64974;53.144;17.962;2024-01-30T03:37:53;39.90;;;15.00;;
76196;SDS011;64974;53.144;17.962;2024-01-30T03:40:19;38.47;;;14.52;;
76196;SDS011;64974;53.144;17.962;2024-01-30T03:42:56;37.53;;;16.02;;
76196;SDS011;64974;53.144;17.962;2024-01-30T03:45:23;36.65;;;15.15;;
76196;SDS011;64974;53.144;17.962;2024-01-30T03:47:53;39.15;;;13.55;;
76196;SDS011;64974;53.144;17.962;2024-01-30T03:50:23;32.47;;;12.27;;
76196;SDS011;64974;53.144;17.962;2024-01-30T03:52:49;30.52;;;12.35;;
76196;SDS011;64974;53.144;17.962;2024-01-30T03:55:16;35.60;;;14.20;;
76196;SDS011;64974;53.144;17.962;2024-01-30T03:57:42;33.65;;;12.13;;
76196;SDS011;64974;53.144;17.962;2024-01-30T04:00:09;32.67;;;13.30;;
76196;SDS011;64974;53.144;17.962;2024-01-30T04:02:39;35.90;;;14.23;;
76196;SDS011;64974;53.144;17.962;2024-01-30T04:05:07;32.83;;;14.68;;
76196;SDS011;64974;53.144;17.962;2024-01-30T04:07:36;37.50;;;14.82;;
76196;SDS011;64974;53.144;17.962;2024-01-30T04:10:03;32.13;;;15.68;;
76196;SDS011;64974;53.144;17.962;2024-01-30T04:12:36;40.25;;;16.20;;
76196;SDS011;64974;53.144;17.962;2024-01-30T04:15:03;34.72;;;13.93;;
76196;SDS011;64974;53.144;17.962;2024-01-30T04:17:39;33.25;;;13.75;;
76196;SDS011;64974;53.144;17.962;2024-01-30T04:20:13;36.20;;;14.10;;
76196;SDS011;64974;53.144;17.962;2024-01-30T04:22:41;42.08;;;14.52;;
76196;SDS011;64974;53.144;17.962;2024-01-30T04:25:08;39.85;;;14.85;;
76196;SDS011;64974;53.144;17.962;2024-01-30T04:27:34;35.33;;;14.80;;
76196;SDS011;64974;53.144;17.962;2024-01-30T04:30:01;44.60;;;16.90;;
76196;SDS011;64974;53.144;17.962;2024-01-30T04:32:27;44.53;;;16.95;;
76196;SDS011;64974;53.144;17.962;2024-01-30T04:34:54;38.03;;;14.85;;
76196;SDS011;64974;53.144;17.962;2024-01-30T04:37:22;41.10;;;15.95;;
76196;SDS011;64974;53.144;17.962;2024-01-30T04:39:51;34.85;;;12.80;;
76196;SDS011;64974;53.144;17.962;2024-01-30T04:42:19;40.45;;;13.50;;
76196;SDS011;64974;53.144;17.962;2024-01-30T04:44:45;32.88;;;14.20;;
76196;SDS011;64974;53.144;17.962;2024-01-30T04:47:12;33.83;;;14.10;;
76196;SDS011;64974;53.144;17.962;2024-01-30T04:49:39;28.63;;;14.02;;
76196;SDS011;64974;53.144;17.962;2024-01-30T04:52:05;39.65;;;13.98;;
76196;SDS011;64974;53.144;17.962;2024-01-30T04:54:36;37.67;;;15.57;;
76196;SDS011;64974;53.144;17.962;2024-01-30T04:57:02;34.03;;;14.80;;
76196;SDS011;64974;53.144;17.962;2024-01-30T04:59:34;34.75;;;13.88;;
76196;SDS011;64974;53.144;17.962;2024-01-30T05:04:32;32.30;;;13.73;;
76196;SDS011;64974;53.144;17.962;2024-01-30T05:06:58;36.40;;;14.90;;
76196;SDS011;64974;53.144;17.962;2024-01-30T05:09:25;33.08;;;14.60;;
76196;SDS011;64974;53.144;17.962;2024-01-30T05:11:52;32.08;;;14.75;;
76196;SDS011;64974;53.144;17.962;2024-01-30T05:14:19;34.97;;;15.65;;
76196;SDS011;64974;53.144;17.962;2024-01-30T05:19:12;34.90;;;15.38;;
76196;SDS011;64974;53.144;17.962;2024-01-30T05:21:39;41.20;;;15.85;;
76196;SDS011;64974;53.144;17.962;2024-01-30T05:24:06;39.13;;;16.15;;
76196;SDS011;64974;53.144;17.962;2024-01-30T05:26:37;40.63;;;17.10;;
76196;SDS011;64974;53.144;17.962;2024-01-30T05:29:06;36.10;;;14.25;;
76196;SDS011;64974;53.144;17.962;2024-01-30T05:31:32;34.78;;;14.50;;
76196;SDS011;64974;53.144;17.962;2024-01-30T05:33:59;37.47;;;13.52;;
76196;SDS011;64974;53.144;17.962;2024-01-30T05:38:59;35.22;;;12.60;;
76196;SDS011;64974;53.144;17.962;2024-01-30T05:41:26;37.58;;;15.10;;
76196;SDS011;64974;53.144;17.962;2024-01-30T05:44:02;38.38;;;15.10;;
76196;SDS011;64974;53.144;17.962;2024-01-30T05:46:30;39.28;;;16.30;;
76196;SDS011;64974;53.144;17.962;2024-01-30T05:48:56;39.13;;;16.33;;
76196;SDS011;64974;53.144;17.962;2024-01-30T05:51:23;42.60;;;15.70;;
76196;SDS011;64974;53.144;17.962;2024-01-30T05:53:57;42.65;;;15.95;;
76196;SDS011;64974;53.144;17.962;2024-01-30T05:56:27;36.70;;;14.50;;
76196;SDS011;64974;53.144;17.962;2024-01-30T05:59:00;41.70;;;14.80;;
76196;SDS011;64974;53.144;17.962;2024-01-30T06:01:27;44.38;;;16.25;;
76196;SDS011;64974;53.144;17.962;2024-01-30T06:03:55;48.03;;;19.00;;
76196;SDS011;64974;53.144;17.962;2024-01-30T06:06:22;65.30;;;24.27;;
76196;SDS011;64974;53.144;17.962;2024-01-30T06:10:16;72.95;;;26.80;;
76196;SDS011;64974;53.144;17.962;2024-01-30T06:12:13;97.22;;;29.90;;
76196;SDS011;64974;53.144;17.962;2024-01-30T06:14:41;105.25;;;35.30;;
76196;SDS011;64974;53.144;17.962;2024-01-30T06:17:09;71.80;;;26.15;;
76196;SDS011;64974;53.144;17.962;2024-01-30T06:23:06;63.63;;;21.83;;
76196;SDS011;64974;53.144;17.962;2024-01-30T06:25:32;52.95;;;20.52;;
76196;SDS011;64974;53.144;17.962;2024-01-30T06:28:02;49.35;;;20.25;;
76196;SDS011;64974;53.144;17.962;2024-01-30T06:30:35;56.92;;;21.23;;
76196;SDS011;64974;53.144;17.962;2024-01-30T06:33:06;58.58;;;21.17;;
76196;SDS011;64974;53.144;17.962;2024-01-30T06:35:34;56.15;;;22.05;;
76196;SDS011;64974;53.144;17.962;2024-01-30T06:38:04;51.95;;;21.73;;
76196;SDS011;64974;53.144;17.962;2024-01-30T06:40:31;61.97;;;23.52;;
76196;SDS011;64974;53.144;17.962;2024-01-30T06:43:00;54.20;;;22.50;;
76196;SDS011;64974;53.144;17.962;2024-01-30T06:45:30;65.93;;;23.60;;
76196;SDS011;64974;53.144;17.962;2024-01-30T06:48:02;77.00;;;27.77;;
76196;SDS011;64974;53.144;17.962;2024-01-30T06:50:29;85.10;;;32.17;;
76196;SDS011;64974;53.144;17.962;2024-01-30T06:52:56;98.80;;;34.53;;
76196;SDS011;64974;53.144;17.962;2024-01-30T06:55:25;101.68;;;36.35;;
76196;SDS011;64974;53.144;17.962;2024-01-30T06:58:15;95.53;;;34.50;;
76196;SDS011;64974;53.144;17.962;2024-01-30T07:00:41;83.10;;;30.95;;
76196;SDS011;64974;53.144;17.962;2024-01-30T07:03:25;67.05;;;24.00;;
76196;SDS011;64974;53.144;17.962;2024-01-30T07:05:52;66.05;;;25.33;;
76196;SDS011;64974;53.144;17.962;2024-01-30T07:10:49;75.82;;;27.73;;
76196;SDS011;64974;53.144;17.962;2024-01-30T07:13:20;70.30;;;29.23;;
76196;SDS011;64974;53.144;17.962;2024-01-30T07:15:46;70.38;;;27.20;;
76196;SDS011;64974;53.144;17.962;2024-01-30T07:18:23;83.10;;;29.95;;
76196;SDS011;64974;53.144;17.962;2024-01-30T07:21:00;68.72;;;28.85;;
76196;SDS011;64974;53.144;17.962;2024-01-30T07:26:03;60.83;;;23.08;;
76196;SDS011;64974;53.144;17.962;2024-01-30T07:28:34;67.30;;;24.77;;
76196;SDS011;64974;53.144;17.962;2024-01-30T07:31:01;62.92;;;24.60;;
76196;SDS011;64974;53.144;17.962;2024-01-30T07:36:30;58.85;;;22.73;;
76196;SDS011;64974;53.144;17.962;2024-01-30T07:39:00;56.83;;;24.20;;
76196;SDS011;64974;53.144;17.962;2024-01-30T07:41:27;61.53;;;26.23;;
76196;SDS011;64974;53.144;17.962;2024-01-30T07:44:30;64.03;;;28.70;;
76196;SDS011;64974;53.144;17.962;2024-01-30T07:47:41;57.70;;;24.48;;
76196;SDS011;64974;53.144;17.962;2024-01-30T07:54:46;56.53;;;22.73;;
76196;SDS011;64974;53.144;17.962;2024-01-30T08:23:38;79.10;;;31.20;;
76196;SDS011;64974;53.144;17.962;2024-01-30T08:29:40;69.57;;;29.25;;
76196;SDS011;64974;53.144;17.962;2024-01-30T08:32:20;82.38;;;31.88;;
76196;SDS011;64974;53.144;17.962;2024-01-30T08:34:47;94.70;;;36.30;;
76196;SDS011;64974;53.144;17.962;2024-01-30T08:37:13;98.15;;;36.10;;
76196;SDS011;64974;53.144;17.962;2024-01-30T08:39:41;100.25;;;38.38;;
76196;SDS011;64974;53.144;17.962;2024-01-30T08:42:08;100.60;;;37.92;;
76196;SDS011;64974;53.144;17.962;2024-01-30T08:44:35;94.45;;;38.35;;
76196;SDS011;64974;53.144;17.962;2024-01-30T08:47:03;92.75;;;37.40;;
76196;SDS011;64974;53.144;17.962;2024-01-30T08:49:30;81.18;;;33.20;;
76196;SDS011;64974;53.144;17.962;2024-01-30T08:54:26;65.93;;;25.42;;
76196;SDS011;64974;53.144;17.962;2024-01-30T08:56:53;57.20;;;22.35;;
76196;SDS011;64974;53.144;17.962;2024-01-30T08:59:21;42.55;;;20.00;;
76196;SDS011;64974;53.144;17.962;2024-01-30T09:01:55;47.20;;;19.30;;
76196;SDS011;64974;53.144;17.962;2024-01-30T09:04:34;44.10;;;17.73;;
76196;SDS011;64974;53.144;17.962;2024-01-30T09:07:04;30.48;;;14.07;;
76196;SDS011;64974;53.144;17.962;2024-01-30T09:09:40;26.27;;;13.50;;
76196;SDS011;64974;53.144;17.962;2024-01-30T09:13:02;28.98;;;12.80;;
76196;SDS011;64974;53.144;17.962;2024-01-30T09:15:53;24.45;;;11.13;;
76196;SDS011;64974;53.144;17.962;2024-01-30T09:22:20;23.15;;;9.43;;
76196;SDS011;64974;53.144;17.962;2024-01-30T09:45:41;21.63;;;7.68;;
76196;SDS011;64974;53.144;17.962;2024-01-30T09:48:13;20.90;;;9.55;;
76196;SDS011;64974;53.144;17.962;2024-01-30T09:57:41;18.33;;;8.48;;
76196;SDS011;64974;53.144;17.962;2024-01-30T10:00:10;23.98;;;10.55;;
76196;SDS011;64974;53.144;17.962;2024-01-30T10:02:39;19.33;;;8.40;;
76196;SDS011;64974;53.144;17.962;2024-01-30T10:05:07;22.08;;;10.05;;
76196;SDS011;64974;53.144;17.962;2024-01-30T10:07:35;20.15;;;9.25;;
76196;SDS011;64974;53.144;17.962;2024-01-30T10:12:29;17.73;;;8.57;;
76196;SDS011;64974;53.144;17.962;2024-01-30T10:14:56;18.48;;;7.90;;
76196;SDS011;64974;53.144;17.962;2024-01-30T10:17:24;20.98;;;8.45;;
76196;SDS011;64974;53.144;17.962;2024-01-30T10:19:55;21.80;;;8.63;;
76196;SDS011;64974;53.144;17.962;2024-01-30T10:22:21;17.35;;;7.93;;
76196;SDS011;64974;53.144;17.962;2024-01-30T10:24:48;18.13;;;7.95;;
76196;SDS011;64974;53.144;17.962;2024-01-30T10:27:26;16.55;;;7.68;;
76196;SDS011;64974;53.144;17.962;2024-01-30T10:29:54;15.98;;;8.27;;
76196;SDS011;64974;53.144;17.962;2024-01-30T10:34:49;13.40;;;7.65;;
76196;SDS011;64974;53.144;17.962;2024-01-30T10:40:15;16.40;;;6.93;;
76196;SDS011;64974;53.144;17.962;2024-01-30T10:42:45;14.32;;;7.30;;
76196;SDS011;64974;53.144;17.962;2024-01-30T10:45:12;17.83;;;7.18;;
76196;SDS011;64974;53.144;17.962;2024-01-30T10:47:40;16.45;;;7.55;;
76196;SDS011;64974;53.144;17.962;2024-01-30T10:50:10;14.82;;;7.88;;
76196;SDS011;64974;53.144;17.962;2024-01-30T10:55:19;16.50;;;8.68;;
76196;SDS011;64974;53.144;17.962;2024-01-30T10:57:48;18.05;;;8.48;;
76196;SDS011;64974;53.144;17.962;2024-01-30T11:02:41;15.07;;;7.55;;
76196;SDS011;64974;53.144;17.962;2024-01-30T11:05:25;17.85;;;8.32;;
76196;SDS011;64974;53.144;17.962;2024-01-30T11:07:57;16.52;;;7.88;;
76196;SDS011;64974;53.144;17.962;2024-01-30T11:10:27;15.27;;;7.93;;
76196;SDS011;64974;53.144;17.962;2024-01-30T11:12:54;21.10;;;8.50;;
76196;SDS011;64974;53.144;17.962;2024-01-30T11:15:23;16.55;;;6.63;;
76196;SDS011;64974;53.144;17.962;2024-01-30T11:17:55;21.88;;;8.80;;
76196;SDS011;64974;53.144;17.962;2024-01-30T11:20:42;16.80;;;9.25;;
76196;SDS011;64974;53.144;17.962;2024-01-30T11:23:34;13.45;;;6.70;;
76196;SDS011;64974;53.144;17.962;2024-01-30T11:26:02;15.13;;;7.70;;
76196;SDS011;64974;53.144;17.962;2024-01-30T11:28:33;16.25;;;7.72;;
76196;SDS011;64974;53.144;17.962;2024-01-30T11:31:13;13.73;;;7.43;;
76196;SDS011;64974;53.144;17.962;2024-01-30T11:33:44;18.73;;;7.93;;
76196;SDS011;64974;53.144;17.962;2024-01-30T11:36:11;16.90;;;8.30;;
76196;SDS011;64974;53.144;17.962;2024-01-30T11:41:38;15.23;;;8.00;;
76196;SDS011;64974;53.144;17.962;2024-01-30T11:44:18;15.38;;;7.70;;
76196;SDS011;64974;53.144;17.962;2024-01-30T11:46:45;17.60;;;8.48;;
76196;SDS011;64974;53.144;17.962;2024-01-30T11:49:18;25.13;;;9.70;;
76196;SDS011;64974;53.144;17.962;2024-01-30T11:51:45;18.95;;;7.85;;
76196;SDS011;64974;53.144;17.962;2024-01-30T11:54:17;17.60;;;7.60;;
76196;SDS011;64974;53.144;17.962;2024-01-30T11:56:44;18.95;;;9.48;;
76196;SDS011;64974;53.144;17.962;2024-01-30T11:59:18;15.98;;;7.40;;
76196;SDS011;64974;53.144;17.962;2024-01-30T12:01:45;17.27;;;7.60;;
76196;SDS011;64974;53.144;17.962;2024-01-30T12:04:12;20.50;;;9.15;;
76196;SDS011;64974;53.144;17.962;2024-01-30T12:06:56;16.77;;;7.63;;
76196;SDS011;64974;53.144;17.962;2024-01-30T12:09:24;18.85;;;8.77;;
76196;SDS011;64974;53.144;17.962;2024-01-30T12:11:50;19.83;;;10.27;;
76196;SDS011;64974;53.144;17.962;2024-01-30T12:16:47;19.20;;;9.38;;
76196;SDS011;64974;53.144;17.962;2024-01-30T12:20:09;18.67;;;8.20;;
76196;SDS011;64974;53.144;17.962;2024-01-30T12:22:19;18.20;;;7.88;;
76196;SDS011;64974;53.144;17.962;2024-01-30T12:24:50;12.65;;;6.82;;
76196;SDS011;64974;53.144;17.962;2024-01-30T12:29:45;15.57;;;7.47;;
76196;SDS011;64974;53.144;17.962;2024-01-30T12:32:17;19.17;;;8.20;;
76196;SDS011;64974;53.144;17.962;2024-01-30T12:34:48;16.08;;;8.65;;
76196;SDS011;64974;53.144;17.962;2024-01-30T12:37:31;17.08;;;7.95;;
76196;SDS011;64974;53.144;17.962;2024-01-30T12:40:10;16.33;;;7.03;;
76196;SDS011;64974;53.144;17.962;2024-01-30T12:42:38;14.88;;;7.72;;
76196;SDS011;64974;53.144;17.962;2024-01-30T12:45:05;17.65;;;6.63;;
76196;SDS011;64974;53.144;17.962;2024-01-30T12:47:32;17.48;;;8.13;;
76196;SDS011;64974;53.144;17.962;2024-01-30T12:50:06;18.63;;;9.27;;
76196;SDS011;64974;53.144;17.962;2024-01-30T12:52:33;16.90;;;7.93;;
76196;SDS011;64974;53.144;17.962;2024-01-30T12:55:01;17.10;;;8.40;;
76196;SDS011;64974;53.144;17.962;2024-01-30T13:00:59;16.73;;;7.97;;
76196;SDS011;64974;53.144;17.962;2024-01-30T13:03:25;14.85;;;7.85;;
76196;SDS011;64974;53.144;17.962;2024-01-30T13:06:09;15.05;;;7.97;;
76196;SDS011;64974;53.144;17.962;2024-01-30T13:08:37;18.50;;;9.48;;
76196;SDS011;64974;53.144;17.962;2024-01-30T13:11:11;17.05;;;8.82;;
76196;SDS011;64974;53.144;17.962;2024-01-30T13:13:38;19.27;;;8.13;;
76196;SDS011;64974;53.144;17.962;2024-01-30T13:16:06;18.83;;;8.02;;
76196;SDS011;64974;53.144;17.962;2024-01-30T13:18:33;17.90;;;8.93;;
76196;SDS011;64974;53.144;17.962;2024-01-30T13:21:12;15.77;;;7.53;;
76196;SDS011;64974;53.144;17.962;2024-01-30T13:23:38;19.55;;;7.57;;
76196;SDS011;64974;53.144;17.962;2024-01-30T13:26:05;18.48;;;9.23;;
76196;SDS011;64974;53.144;17.962;2024-01-30T13:28:32;19.17;;;8.95;;
76196;SDS011;64974;53.144;17.962;2024-01-30T13:31:01;18.42;;;8.60;;
76196;SDS011;64974;53.144;17.962;2024-01-30T13:33:44;16.70;;;8.68;;
76196;SDS011;64974;53.144;17.962;2024-01-30T13:36:10;16.92;;;7.68;;
76196;SDS011;64974;53.144;17.962;2024-01-30T13:38:43;17.02;;;8.45;;
76196;SDS011;64974;53.144;17.962;2024-01-30T13:41:24;19.15;;;8.60;;
76196;SDS011;64974;53.144;17.962;2024-01-30T13:43:54;18.63;;;8.30;;
76196;SDS011;64974;53.144;17.962;2024-01-30T13:46:27;21.52;;;8.48;;
76196;SDS011;64974;53.144;17.962;2024-01-30T13:48:57;16.02;;;7.53;;
76196;SDS011;64974;53.144;17.962;2024-01-30T13:51:24;19.70;;;9.90;;
76196;SDS011;64974;53.144;17.962;2024-01-30T13:53:50;23.75;;;10.73;;
76196;SDS011;64974;53.144;17.962;2024-01-30T13:56:17;27.80;;;13.00;;
76196;SDS011;64974;53.144;17.962;2024-01-30T13:58:43;32.28;;;13.55;;
76196;SDS011;64974;53.144;17.962;2024-01-30T14:01:16;24.83;;;11.02;;
76196;SDS011;64974;53.144;17.962;2024-01-30T14:03:45;19.00;;;9.70;;
76196;SDS011;64974;53.144;17.962;2024-01-30T14:06:16;15.52;;;9.50;;
76196;SDS011;64974;53.144;17.962;2024-01-30T14:08:43;20.02;;;9.30;;
76196;SDS011;64974;53.144;17.962;2024-01-30T14:11:09;18.90;;;9.60;;
76196;SDS011;64974;53.144;17.962;2024-01-30T14:13:36;20.40;;;8.70;;
76196;SDS011;64974;53.144;17.962;2024-01-30T14:16:12;21.00;;;10.32;;
76196;SDS011;64974;53.144;17.962;2024-01-30T14:18:39;22.67;;;9.82;;
76196;SDS011;64974;53.144;17.962;2024-01-30T14:21:06;27.25;;;10.38;;
76196;SDS011;64974;53.144;17.962;2024-01-30T14:23:34;22.17;;;10.25;;
76196;SDS011;64974;53.144;17.962;2024-01-30T14:26:09;21.85;;;10.07;;
76196;SDS011;64974;53.144;17.962;2024-01-30T14:28:43;20.95;;;10.05;;
76196;SDS011;64974;53.144;17.962;2024-01-30T14:31:11;21.35;;;10.82;;
76196;SDS011;64974;53.144;17.962;2024-01-30T14:33:38;19.25;;;10.52;;
76196;SDS011;64974;53.144;17.962;2024-01-30T14:36:08;18.52;;;8.98;;
76196;SDS011;64974;53.144;17.962;2024-01-30T14:38:36;22.15;;;10.23;;
76196;SDS011;64974;53.144;17.962;2024-01-30T14:41:05;20.50;;;10.50;;
76196;SDS011;64974;53.144;17.962;2024-01-30T14:43:31;22.38;;;11.90;;
76196;SDS011;64974;53.144;17.962;2024-01-30T14:48:28;33.17;;;12.38;;
76196;SDS011;64974;53.144;17.962;2024-01-30T14:50:55;35.08;;;13.20;;
76196;SDS011;64974;53.144;17.962;2024-01-30T14:53:22;40.03;;;14.95;;
76196;SDS011;64974;53.144;17.962;2024-01-30T14:58:31;35.97;;;13.00;;
76196;SDS011;64974;53.144;17.962;2024-01-30T15:01:04;31.25;;;13.40;;
76196;SDS011;64974;53.144;17.962;2024-01-30T15:03:30;29.95;;;12.00;;
76196;SDS011;64974;53.144;17.962;2024-01-30T15:06:00;34.60;;;12.07;;
76196;SDS011;64974;53.144;17.962;2024-01-30T15:08:29;29.15;;;11.60;;
76196;SDS011;64974;53.144;17.962;2024-01-30T15:10:56;27.77;;;10.90;;
76196;SDS011;64974;53.144;17.962;2024-01-30T15:13:26;25.23;;;10.70;;
76196;SDS011;64974;53.144;17.962;2024-01-30T15:15:52;23.27;;;11.50;;
76196;SDS011;64974;53.144;17.962;2024-01-30T15:18:19;21.98;;;11.43;;
76196;SDS011;64974;53.144;17.962;2024-01-30T15:20:45;29.30;;;11.88;;
76196;SDS011;64974;53.144;17.962;2024-01-30T15:23:12;39.63;;;16.20;;
76196;SDS011;64974;53.144;17.962;2024-01-30T15:25:39;37.25;;;14.10;;
76196;SDS011;64974;53.144;17.962;2024-01-30T15:28:08;34.85;;;16.15;;
76196;SDS011;64974;53.144;17.962;2024-01-30T15:30:47;37.00;;;16.92;;
76196;SDS011;64974;53.144;17.962;2024-01-30T15:33:14;47.45;;;20.52;;
76196;SDS011;64974;53.144;17.962;2024-01-30T15:35:40;50.00;;;22.83;;
76196;SDS011;64974;53.144;17.962;2024-01-30T15:38:10;43.30;;;18.65;;
76196;SDS011;64974;53.144;17.962;2024-01-30T15:40:37;41.20;;;19.05;;
76196;SDS011;64974;53.144;17.962;2024-01-30T15:43:03;42.15;;;17.40;;
76196;SDS011;64974;53.144;17.962;2024-01-30T15:45:30;48.67;;;17.65;;
76196;SDS011;64974;53.144;17.962;2024-01-30T15:48:04;36.35;;;16.05;;
76196;SDS011;64974;53.144;17.962;2024-01-30T15:50:34;38.10;;;16.17;;
76196;SDS011;64974;53.144;17.962;2024-01-30T15:53:00;40.72;;;16.88;;
76196;SDS011;64974;53.144;17.962;2024-01-30T15:55:27;32.97;;;15.88;;
76196;SDS011;64974;53.144;17.962;2024-01-30T15:57:55;36.88;;;16.45;;
76196;SDS011;64974;53.144;17.962;2024-01-30T16:00:21;30.60;;;14.45;;
76196;SDS011;64974;53.144;17.962;2024-01-30T16:02:48;34.85;;;16.23;;
76196;SDS011;64974;53.144;17.962;2024-01-30T16:05:30;31.77;;;14.88;;
76196;SDS011;64974;53.144;17.962;2024-01-30T16:08:02;27.15;;;13.90;;
76196;SDS011;64974;53.144;17.962;2024-01-30T16:13:01;26.02;;;11.82;;
76196;SDS011;64974;53.144;17.962;2024-01-30T16:15:29;24.20;;;11.70;;
76196;SDS011;64974;53.144;17.962;2024-01-30T16:17:55;28.63;;;11.48;;
76196;SDS011;64974;53.144;17.962;2024-01-30T16:20:22;29.02;;;12.50;;
76196;SDS011;64974;53.144;17.962;2024-01-30T16:22:50;27.63;;;12.05;;
76196;SDS011;64974;53.144;17.962;2024-01-30T16:25:27;21.80;;;11.45;;
76196;SDS011;64974;53.144;17.962;2024-01-30T16:27:54;26.38;;;14.77;;
76196;SDS011;64974;53.144;17.962;2024-01-30T16:32:49;29.10;;;13.75;;
76196;SDS011;64974;53.144;17.962;2024-01-30T16:35:16;25.98;;;13.23;;
76196;SDS011;64974;53.144;17.962;2024-01-30T16:37:43;31.02;;;14.55;;
76196;SDS011;64974;53.144;17.962;2024-01-30T16:40:14;28.60;;;14.38;;
76196;SDS011;64974;53.144;17.962;2024-01-30T16:42:41;33.60;;;14.15;;